sensor_id;sensor_type;location;lat;lon;timestamp;pressure;altitude;pressure_sealevel;temperature;humidity
45888;BME280;31595;51.418;7.572;2022-07-10T00:00:59;101300.97;;;17.22;54.19
45888;BME280;31595;51.418;7.572;2022-07-10T00:03:26;101297.19;;;17.18;54.25
45888;BME280;31595;51.418;7.572;2022-07-10T00:05:53;101292.38;;;17.18;54.23
45888;BME280;31595;51.418;7.572;2022-07-10T00:08:21;101290.38;;;17.19;54.35
45888;BME280;31595;51.418;7.572;2022-07-10T00:10:48;101296.69;;;17.16;54.59
45888;BME280;31595;51.418;7.572;2022-07-10T00:13:15;101295.03;;;17.15;54.29
45888;BME280;31595;51.418;7.572;2022-07-10T00:15:44;101296.88;;;17.11;54.49
45888;BME280;31595;51.418;7.572;2022-07-10T00:18:11;101283.47;;;17.08;54.65
45888;BME280;31595;51.418;7.572;2022-07-10T00:20:39;101294.75;;;17.08;54.99
45888;BME280;31595;51.418;7.572;2022-07-10T00:23:06;101289.13;;;17.08;54.64
45888;BME280;31595;51.418;7.572;2022-07-10T00:25:34;101292.59;;;17.04;54.65
45888;BME280;31595;51.418;7.572;2022-07-10T00:28:01;101292.47;;;17.01;55.03
45888;BME280;31595;51.418;7.572;2022-07-10T00:30:29;101290.13;;;17.03;55.03
45888;BME280;31595;51.418;7.572;2022-07-10T00:32:57;101281.31;;;17.04;55.00
45888;BME280;31595;51.418;7.572;2022-07-10T00:35:25;101294.25;;;17.06;55.02
45888;BME280;31595;51.418;7.572;2022-07-10T00:37:52;101285.31;;;17.03;55.13
45888;BME280;31595;51.418;7.572;2022-07-10T00:40:20;101294.63;;;16.95;55.03
45888;BME280;31595;51.418;7.572;2022-07-10T00:42:47;101287.34;;;16.94;55.30
45888;BME280;31595;51.418;7.572;2022-07-10T00:45:15;101289.16;;;16.90;55.29
45888;BME280;31595;51.418;7.572;2022-07-10T00:47:42;101276.44;;;16.93;55.23
45888;BME280;31595;51.418;7.572;2022-07-10T00:50:11;101288.03;;;16.91;55.38
45888;BME280;31595;51.418;7.572;2022-07-10T00:52:40;101268.97;;;16.88;55.29
45888;BME280;31595;51.418;7.572;2022-07-10T00:55:09;101270.97;;;16.88;55.44
45888;BME280;31595;51.418;7.572;2022-07-10T00:57:37;101279.56;;;16.91;55.30
45888;BME280;31595;51.418;7.572;2022-07-10T01:00:07;101272.97;;;16.87;55.51
45888;BME280;31595;51.418;7.572;2022-07-10T01:02:38;101279.09;;;16.89;55.95
45888;BME280;31595;51.418;7.572;2022-07-10T01:05:08;101271.31;;;16.86;55.93
45888;BME280;31595;51.418;7.572;2022-07-10T01:07:36;101275.78;;;16.87;56.04
45888;BME280;31595;51.418;7.572;2022-07-10T01:10:04;101267.03;;;16.80;56.16
45888;BME280;31595;51.418;7.572;2022-07-10T01:12:32;101266.53;;;16.87;56.20
45888;BME280;31595;51.418;7.572;2022-07-10T01:15:00;101261.22;;;16.85;56.39
45888;BME280;31595;51.418;7.572;2022-07-10T01:17:27;101263.03;;;16.90;56.34
45888;BME280;31595;51.418;7.572;2022-07-10T01:19:55;101250.63;;;16.91;56.29
45888;BME280;31595;51.418;7.572;2022-07-10T01:22:24;101253.06;;;16.92;56.22
45888;BME280;31595;51.418;7.572;2022-07-10T01:24:51;101251.44;;;16.91;56.54
45888;BME280;31595;51.418;7.572;2022-07-10T01:27:18;101249.44;;;16.92;56.43
45888;BME280;31595;51.418;7.572;2022-07-10T01:29:46;101259.88;;;16.91;56.47
45888;BME280;31595;51.418;7.572;2022-07-10T01:32:13;101249.28;;;16.88;56.41
45888;BME280;31595;51.418;7.572;2022-07-10T01:34:41;101246.84;;;16.87;56.30
45888;BME280;31595;51.418;7.572;2022-07-10T01:37:08;101244.03;;;16.87;56.52
45888;BME280;31595;51.418;7.572;2022-07-10T01:39:37;101246.34;;;16.84;56.35
45888;BME280;31595;51.418;7.572;2022-07-10T01:42:04;101242.72;;;16.84;56.37
45888;BME280;31595;51.418;7.572;2022-07-10T01:44:32;101247.50;;;16.83;56.43
45888;BME280;31595;51.418;7.572;2022-07-10T01:46:59;101240.34;;;16.86;56.73
45888;BME280;31595;51.418;7.572;2022-07-10T01:49:26;101241.03;;;16.83;56.52
45888;BME280;31595;51.418;7.572;2022-07-10T01:51:53;101248.19;;;16.80;56.59
45888;BME280;31595;51.418;7.572;2022-07-10T01:54:21;101244.34;;;16.76;56.63
45888;BME280;31595;51.418;7.572;2022-07-10T01:56:49;101241.53;;;16.76;56.54
45888;BME280;31595;51.418;7.572;2022-07-10T01:59:17;101237.75;;;16.72;56.64
45888;BME280;31595;51.418;7.572;2022-07-10T02:01:44;101234.44;;;16.70;56.51
45888;BME280;31595;51.418;7.572;2022-07-10T02:04:11;101236.94;;;16.72;56.71
45888;BME280;31595;51.418;7.572;2022-07-10T02:06:56;101229.84;;;16.66;56.94
45888;BME280;31595;51.418;7.572;2022-07-10T02:09:23;101220.06;;;16.63;56.80
45888;BME280;31595;51.418;7.572;2022-07-10T02:11:52;101221.75;;;16.64;56.76
45888;BME280;31595;51.418;7.572;2022-07-10T02:14:19;101218.59;;;16.66;56.61
45888;BME280;31595;51.418;7.572;2022-07-10T02:16:46;101223.72;;;16.63;56.81
45888;BME280;31595;51.418;7.572;2022-07-10T02:19:14;101226.53;;;16.63;56.89
45888;BME280;31595;51.418;7.572;2022-07-10T02:21:41;101224.56;;;16.64;57.03
45888;BME280;31595;51.418;7.572;2022-07-10T02:24:08;101220.59;;;16.56;57.37
45888;BME280;31595;51.418;7.572;2022-07-10T02:26:36;101225.69;;;16.63;57.30
45888;BME280;31595;51.418;7.572;2022-07-10T02:29:04;101222.56;;;16.64;57.22
45888;BME280;31595;51.418;7.572;2022-07-10T02:31:32;101231.69;;;16.61;57.37
45888;BME280;31595;51.418;7.572;2022-07-10T02:34:00;101218.28;;;16.58;57.65
45888;BME280;31595;51.418;7.572;2022-07-10T02:36:27;101217.13;;;16.59;57.47
45888;BME280;31595;51.418;7.572;2022-07-10T02:38:55;101214.31;;;16.59;57.64
45888;BME280;31595;51.418;7.572;2022-07-10T02:41:22;101206.53;;;16.56;57.26
45888;BME280;31595;51.418;7.572;2022-07-10T02:43:49;101215.94;;;16.60;57.30
45888;BME280;31595;51.418;7.572;2022-07-10T02:46:18;101211.50;;;16.59;57.27
45888;BME280;31595;51.418;7.572;2022-07-10T02:48:45;101211.50;;;16.59;57.15
45888;BME280;31595;51.418;7.572;2022-07-10T02:51:13;101207.72;;;16.55;57.26
45888;BME280;31595;51.418;7.572;2022-07-10T02:53:40;101213.34;;;16.55;57.35
45888;BME280;31595;51.418;7.572;2022-07-10T02:56:07;101210.69;;;16.59;57.47
45888;BME280;31595;51.418;7.572;2022-07-10T02:58:34;101208.38;;;16.52;57.50
45888;BME280;31595;51.418;7.572;2022-07-10T03:01:02;101212.53;;;16.55;57.63
45888;BME280;31595;51.418;7.572;2022-07-10T03:03:30;101218.81;;;16.52;57.69
45888;BME280;31595;51.418;7.572;2022-07-10T03:05:58;101215.66;;;16.53;57.51
45888;BME280;31595;51.418;7.572;2022-07-10T03:08:25;101208.72;;;16.51;57.54
45888;BME280;31595;51.418;7.572;2022-07-10T03:10:53;101214.19;;;16.47;57.61
45888;BME280;31595;51.418;7.572;2022-07-10T03:13:20;101210.41;;;16.43;57.67
45888;BME280;31595;51.418;7.572;2022-07-10T03:15:47;101213.72;;;16.45;57.72
45888;BME280;31595;51.418;7.572;2022-07-10T03:18:15;101206.91;;;16.46;57.58
45888;BME280;31595;51.418;7.572;2022-07-10T03:20:44;101199.44;;;16.50;57.72
45888;BME280;31595;51.418;7.572;2022-07-10T03:23:11;101205.28;;;16.45;57.73
45888;BME280;31595;51.418;7.572;2022-07-10T03:25:38;101198.63;;;16.50;57.96
45888;BME280;31595;51.418;7.572;2022-07-10T03:28:05;101193.00;;;16.50;57.83
45888;BME280;31595;51.418;7.572;2022-07-10T03:30:33;101196.16;;;16.48;57.91
45888;BME280;31595;51.418;7.572;2022-07-10T03:33:00;101192.84;;;16.46;58.07
45888;BME280;31595;51.418;7.572;2022-07-10T03:35:29;101189.53;;;16.44;57.94
45888;BME280;31595;51.418;7.572;2022-07-10T03:37:59;101193.53;;;16.43;58.17
45888;BME280;31595;51.418;7.572;2022-07-10T03:40:27;101196.34;;;16.43;57.98
45888;BME280;31595;51.418;7.572;2022-07-10T03:42:55;101195.16;;;16.44;58.01
45888;BME280;31595;51.418;7.572;2022-07-10T03:45:22;101194.03;;;16.45;58.08
45888;BME280;31595;51.418;7.572;2022-07-10T03:47:49;101191.88;;;16.42;58.17
45888;BME280;31595;51.418;7.572;2022-07-10T03:50:17;101206.41;;;16.44;58.22
45888;BME280;31595;51.418;7.572;2022-07-10T03:52:44;101211.38;;;16.47;58.09
45888;BME280;31595;51.418;7.572;2022-07-10T03:55:13;101208.25;;;16.49;58.32
45888;BME280;31595;51.418;7.572;2022-07-10T03:57:41;101210.69;;;16.50;58.05
45888;BME280;31595;51.418;7.572;2022-07-10T04:00:20;101207.88;;;16.50;58.02
45888;BME280;31595;51.418;7.572;2022-07-10T04:02:54;101208.38;;;16.52;57.93
45888;BME280;31595;51.418;7.572;2022-07-10T04:05:22;101215.84;;;16.48;58.21
45888;BME280;31595;51.418;7.572;2022-07-10T04:07:49;101202.25;;;16.50;58.46
45888;BME280;31595;51.418;7.572;2022-07-10T04:10:18;101203.09;;;16.51;58.55
45888;BME280;31595;51.418;7.572;2022-07-10T04:12:46;101205.56;;;16.52;58.36
45888;BME280;31595;51.418;7.572;2022-07-10T04:15:13;101206.06;;;16.54;58.35
45888;BME280;31595;51.418;7.572;2022-07-10T04:17:41;101208.53;;;16.56;58.27
45888;BME280;31595;51.418;7.572;2022-07-10T04:20:09;101208.69;;;16.59;58.36
45888;BME280;31595;51.418;7.572;2022-07-10T04:22:36;101207.50;;;16.60;58.54
45888;BME280;31595;51.418;7.572;2022-07-10T04:25:05;101216.13;;;16.64;58.17
45888;BME280;31595;51.418;7.572;2022-07-10T04:27:33;101214.59;;;16.67;58.20
45888;BME280;31595;51.418;7.572;2022-07-10T04:30:02;101214.75;;;16.70;58.27
45888;BME280;31595;51.418;7.572;2022-07-10T04:32:30;101208.00;;;16.62;58.26
45888;BME280;31595;51.418;7.572;2022-07-10T04:34:57;101210.44;;;16.73;58.32
45888;BME280;31595;51.418;7.572;2022-07-10T04:37:26;101206.97;;;16.76;57.84
45888;BME280;31595;51.418;7.572;2022-07-10T04:39:54;101211.63;;;16.72;58.24
45888;BME280;31595;51.418;7.572;2022-07-10T04:42:21;101205.03;;;16.68;58.30
45888;BME280;31595;51.418;7.572;2022-07-10T04:44:50;101212.94;;;16.74;58.30
45888;BME280;31595;51.418;7.572;2022-07-10T04:47:17;101221.03;;;16.76;57.79
45888;BME280;31595;51.418;7.572;2022-07-10T04:49:45;101225.81;;;16.75;58.15
45888;BME280;31595;51.418;7.572;2022-07-10T04:52:12;101231.31;;;16.80;58.00
45888;BME280;31595;51.418;7.572;2022-07-10T04:54:39;101229.31;;;16.81;58.16
45888;BME280;31595;51.418;7.572;2022-07-10T04:57:06;101227.13;;;16.87;57.71
45888;BME280;31595;51.418;7.572;2022-07-10T04:59:34;101225.13;;;16.87;57.82
45888;BME280;31595;51.418;7.572;2022-07-10T05:02:03;101222.47;;;16.91;57.95
45888;BME280;31595;51.418;7.572;2022-07-10T05:04:30;101227.56;;;16.97;57.93
45888;BME280;31595;51.418;7.572;2022-07-10T05:06:58;101221.72;;;17.02;57.33
45888;BME280;31595;51.418;7.572;2022-07-10T05:09:25;101217.28;;;17.01;57.34
45888;BME280;31595;51.418;7.572;2022-07-10T05:11:53;101221.84;;;17.15;57.29
45888;BME280;31595;51.418;7.572;2022-07-10T05:14:20;101218.47;;;17.21;56.99
45888;BME280;31595;51.418;7.572;2022-07-10T05:16:47;101217.97;;;17.19;57.17
45888;BME280;31595;51.418;7.572;2022-07-10T05:19:16;101223.84;;;17.35;56.50
45888;BME280;31595;51.418;7.572;2022-07-10T05:21:43;101217.75;;;17.33;56.32
45888;BME280;31595;51.418;7.572;2022-07-10T05:24:11;101224.81;;;17.39;55.82
45888;BME280;31595;51.418;7.572;2022-07-10T05:26:38;101221.94;;;17.48;56.02
45888;BME280;31595;51.418;7.572;2022-07-10T05:29:05;101220.56;;;17.54;55.77
45888;BME280;31595;51.418;7.572;2022-07-10T05:31:32;101224.34;;;17.58;55.63
45888;BME280;31595;51.418;7.572;2022-07-10T05:34:00;101224.03;;;17.72;55.07
45888;BME280;31595;51.418;7.572;2022-07-10T05:36:28;101225.81;;;17.85;54.89
45888;BME280;31595;51.418;7.572;2022-07-10T05:38:56;101222.19;;;17.97;54.80
45888;BME280;31595;51.418;7.572;2022-07-10T05:41:23;101221.91;;;18.11;54.42
45888;BME280;31595;51.418;7.572;2022-07-10T05:43:50;101219.69;;;18.17;53.67
45888;BME280;31595;51.418;7.572;2022-07-10T05:46:17;101225.09;;;18.22;53.76
45888;BME280;31595;51.418;7.572;2022-07-10T05:48:45;101218.88;;;18.29;53.80
45888;BME280;31595;51.418;7.572;2022-07-10T05:51:12;101225.13;;;18.34;53.13
45888;BME280;31595;51.418;7.572;2022-07-10T05:53:41;101230.19;;;18.41;53.05
45888;BME280;31595;51.418;7.572;2022-07-10T05:56:08;101221.88;;;18.44;52.60
45888;BME280;31595;51.418;7.572;2022-07-10T05:58:35;101215.44;;;18.56;53.06
45888;BME280;31595;51.418;7.572;2022-07-10T06:01:03;101232.25;;;18.65;52.72
45888;BME280;31595;51.418;7.572;2022-07-10T06:03:30;101227.19;;;18.58;53.14
45888;BME280;31595;51.418;7.572;2022-07-10T06:05:58;101233.19;;;18.69;52.67
45888;BME280;31595;51.418;7.572;2022-07-10T06:08:25;101236.84;;;18.70;52.64
45888;BME280;31595;51.418;7.572;2022-07-10T06:10:54;101237.91;;;18.77;52.23
45888;BME280;31595;51.418;7.572;2022-07-10T06:13:21;101238.38;;;18.92;51.96
45888;BME280;31595;51.418;7.572;2022-07-10T06:15:48;101225.09;;;19.04;51.13
45888;BME280;31595;51.418;7.572;2022-07-10T06:18:15;101230.03;;;19.08;51.14
45888;BME280;31595;51.418;7.572;2022-07-10T06:20:43;101225.47;;;19.15;49.65
45888;BME280;31595;51.418;7.572;2022-07-10T06:23:10;101241.81;;;19.22;49.99
45888;BME280;31595;51.418;7.572;2022-07-10T06:25:37;101237.69;;;19.19;49.39
45888;BME280;31595;51.418;7.572;2022-07-10T06:28:06;101237.44;;;19.24;49.67
45888;BME280;31595;51.418;7.572;2022-07-10T06:30:34;101242.75;;;19.26;48.81
45888;BME280;31595;51.418;7.572;2022-07-10T06:33:01;101240.84;;;19.30;48.88
45888;BME280;31595;51.418;7.572;2022-07-10T06:35:28;101239.38;;;19.48;48.49
45888;BME280;31595;51.418;7.572;2022-07-10T06:37:55;101248.66;;;19.74;48.44
45888;BME280;31595;51.418;7.572;2022-07-10T06:40:23;101242.41;;;19.80;48.26
45888;BME280;31595;51.418;7.572;2022-07-10T06:42:50;101236.31;;;19.78;48.26
45888;BME280;31595;51.418;7.572;2022-07-10T06:45:19;101252.75;;;19.89;48.29
45888;BME280;31595;51.418;7.572;2022-07-10T06:47:46;101242.72;;;19.91;47.53
45888;BME280;31595;51.418;7.572;2022-07-10T06:50:22;101231.56;;;20.11;46.72
45888;BME280;31595;51.418;7.572;2022-07-10T06:52:50;101238.31;;;20.22;46.48
45888;BME280;31595;51.418;7.572;2022-07-10T06:55:18;101231.50;;;20.39;46.23
45888;BME280;31595;51.418;7.572;2022-07-10T06:57:46;101229.00;;;20.50;45.70
45888;BME280;31595;51.418;7.572;2022-07-10T07:00:14;101230.22;;;20.64;46.26
45888;BME280;31595;51.418;7.572;2022-07-10T07:02:44;101231.75;;;20.62;45.84
45888;BME280;31595;51.418;7.572;2022-07-10T07:05:12;101228.38;;;20.72;45.80
45888;BME280;31595;51.418;7.572;2022-07-10T07:07:39;101225.47;;;20.68;46.10
45888;BME280;31595;51.418;7.572;2022-07-10T07:10:08;101228.09;;;20.93;45.54
45888;BME280;31595;51.418;7.572;2022-07-10T07:12:36;101226.16;;;21.13;44.80
45888;BME280;31595;51.418;7.572;2022-07-10T07:15:04;101220.72;;;21.24;44.78
45888;BME280;31595;51.418;7.572;2022-07-10T07:17:32;101225.28;;;21.44;44.07
45888;BME280;31595;51.418;7.572;2022-07-10T07:20:13;101219.41;;;21.37;44.35
45888;BME280;31595;51.418;7.572;2022-07-10T07:22:58;101217.16;;;21.27;44.15
45888;BME280;31595;51.418;7.572;2022-07-10T07:25:37;101219.03;;;21.03;44.33
45888;BME280;31595;51.418;7.572;2022-07-10T07:28:08;101223.25;;;20.94;44.79
45888;BME280;31595;51.418;7.572;2022-07-10T07:30:36;101224.47;;;20.77;45.06
45888;BME280;31595;51.418;7.572;2022-07-10T07:33:03;101219.25;;;20.63;45.59
45888;BME280;31595;51.418;7.572;2022-07-10T07:35:32;101219.75;;;20.53;45.56
45888;BME280;31595;51.418;7.572;2022-07-10T07:38:01;101216.81;;;20.33;45.53
45888;BME280;31595;51.418;7.572;2022-07-10T07:40:29;101227.63;;;20.15;44.90
45888;BME280;31595;51.418;7.572;2022-07-10T07:42:56;101238.03;;;19.83;45.37
45888;BME280;31595;51.418;7.572;2022-07-10T07:45:24;101238.66;;;19.76;45.42
45888;BME280;31595;51.418;7.572;2022-07-10T07:47:55;101245.16;;;19.52;45.97
45888;BME280;31595;51.418;7.572;2022-07-10T07:50:24;101247.88;;;19.48;46.46
45888;BME280;31595;51.418;7.572;2022-07-10T07:52:53;101236.63;;;19.36;46.92
45888;BME280;31595;51.418;7.572;2022-07-10T07:55:21;101236.97;;;19.35;46.90
45888;BME280;31595;51.418;7.572;2022-07-10T07:57:51;101237.56;;;19.40;46.81
45888;BME280;31595;51.418;7.572;2022-07-10T08:00:19;101236.50;;;19.33;47.33
45888;BME280;31595;51.418;7.572;2022-07-10T08:02:49;101242.72;;;19.38;47.48
45888;BME280;31595;51.418;7.572;2022-07-10T08:05:16;101246.03;;;19.40;48.42
45888;BME280;31595;51.418;7.572;2022-07-10T08:07:46;101252.63;;;19.44;48.73
45888;BME280;31595;51.418;7.572;2022-07-10T08:10:16;101248.84;;;19.40;48.32
45888;BME280;31595;51.418;7.572;2022-07-10T08:12:45;101251.91;;;19.35;48.66
45888;BME280;31595;51.418;7.572;2022-07-10T08:15:15;101251.22;;;19.14;49.35
45888;BME280;31595;51.418;7.572;2022-07-10T08:17:44;101256.50;;;19.27;49.79
45888;BME280;31595;51.418;7.572;2022-07-10T08:20:14;101255.47;;;19.20;49.86
45888;BME280;31595;51.418;7.572;2022-07-10T08:22:41;101256.75;;;19.10;51.00
45888;BME280;31595;51.418;7.572;2022-07-10T08:25:09;101250.88;;;19.15;50.83
45888;BME280;31595;51.418;7.572;2022-07-10T08:27:38;101247.00;;;19.20;50.58
45888;BME280;31595;51.418;7.572;2022-07-10T08:30:07;101248.41;;;19.14;50.78
45888;BME280;31595;51.418;7.572;2022-07-10T08:32:36;101252.84;;;19.15;50.83
45888;BME280;31595;51.418;7.572;2022-07-10T08:35:04;101250.28;;;19.10;50.88
45888;BME280;31595;51.418;7.572;2022-07-10T08:37:36;101257.94;;;18.97;51.68
45888;BME280;31595;51.418;7.572;2022-07-10T08:40:06;101255.34;;;18.92;51.64
45888;BME280;31595;51.418;7.572;2022-07-10T08:42:33;101253.56;;;18.87;51.99
45888;BME280;31595;51.418;7.572;2022-07-10T08:45:03;101249.94;;;18.86;51.99
45888;BME280;31595;51.418;7.572;2022-07-10T08:47:30;101249.69;;;18.92;51.83
45888;BME280;31595;51.418;7.572;2022-07-10T08:50:01;101255.34;;;18.92;51.72
45888;BME280;31595;51.418;7.572;2022-07-10T08:52:33;101251.94;;;18.98;51.61
45888;BME280;31595;51.418;7.572;2022-07-10T08:55:01;101248.41;;;18.89;51.71
45888;BME280;31595;51.418;7.572;2022-07-10T08:57:28;101242.16;;;18.96;51.89
45888;BME280;31595;51.418;7.572;2022-07-10T08:59:57;101246.78;;;19.00;51.92
45888;BME280;31595;51.418;7.572;2022-07-10T09:02:26;101245.44;;;19.10;51.85
45888;BME280;31595;51.418;7.572;2022-07-10T09:04:53;101240.75;;;19.14;51.75
45888;BME280;31595;51.418;7.572;2022-07-10T09:07:21;101244.50;;;19.18;51.22
45888;BME280;31595;51.418;7.572;2022-07-10T09:09:52;101246.97;;;19.32;51.50
45888;BME280;31595;51.418;7.572;2022-07-10T09:12:21;101245.66;;;19.30;51.44
45888;BME280;31595;51.418;7.572;2022-07-10T09:14:48;101247.44;;;19.34;51.39
45888;BME280;31595;51.418;7.572;2022-07-10T09:17:16;101243.19;;;19.40;51.60
45888;BME280;31595;51.418;7.572;2022-07-10T09:19:45;101248.09;;;19.56;51.56
45888;BME280;31595;51.418;7.572;2022-07-10T09:22:13;101253.00;;;19.83;51.04
45888;BME280;31595;51.418;7.572;2022-07-10T09:24:43;101245.34;;;20.12;50.61
45888;BME280;31595;51.418;7.572;2022-07-10T09:27:11;101253.31;;;20.22;50.58
45888;BME280;31595;51.418;7.572;2022-07-10T09:29:46;101251.06;;;20.00;50.60
45888;BME280;31595;51.418;7.572;2022-07-10T09:32:15;101254.34;;;20.02;50.74
45888;BME280;31595;51.418;7.572;2022-07-10T09:34:47;101252.13;;;19.95;51.47
45888;BME280;31595;51.418;7.572;2022-07-10T09:37:18;101246.72;;;19.90;51.43
45888;BME280;31595;51.418;7.572;2022-07-10T09:39:53;101253.66;;;19.93;51.72
45888;BME280;31595;51.418;7.572;2022-07-10T09:42:28;101259.63;;;19.75;52.07
45888;BME280;31595;51.418;7.572;2022-07-10T09:45:16;101254.38;;;19.90;52.38
45888;BME280;31595;51.418;7.572;2022-07-10T09:47:45;101247.31;;;19.96;53.17
45888;BME280;31595;51.418;7.572;2022-07-10T09:50:22;101243.66;;;20.39;53.23
45888;BME280;31595;51.418;7.572;2022-07-10T09:52:52;101246.63;;;20.59;52.72
45888;BME280;31595;51.418;7.572;2022-07-10T09:55:21;101242.03;;;20.54;52.48
45888;BME280;31595;51.418;7.572;2022-07-10T09:57:55;101235.88;;;20.64;52.10
45888;BME280;31595;51.418;7.572;2022-07-10T10:00:25;101240.53;;;20.73;51.89
45888;BME280;31595;51.418;7.572;2022-07-10T10:02:57;101232.56;;;20.94;51.04
45888;BME280;31595;51.418;7.572;2022-07-10T10:05:33;101232.88;;;21.24;50.50
45888;BME280;31595;51.418;7.572;2022-07-10T10:08:05;101230.94;;;21.44;50.23
45888;BME280;31595;51.418;7.572;2022-07-10T10:10:38;101224.44;;;21.44;49.51
45888;BME280;31595;51.418;7.572;2022-07-10T10:13:10;101234.97;;;21.43;49.57
45888;BME280;31595;51.418;7.572;2022-07-10T10:15:38;101230.03;;;21.40;49.83
45888;BME280;31595;51.418;7.572;2022-07-10T10:18:06;101226.94;;;21.29;50.34
45888;BME280;31595;51.418;7.572;2022-07-10T10:20:36;101224.47;;;21.28;50.15
45888;BME280;31595;51.418;7.572;2022-07-10T10:23:04;101226.69;;;21.19;50.69
45888;BME280;31595;51.418;7.572;2022-07-10T10:25:32;101225.69;;;21.11;51.57
45888;BME280;31595;51.418;7.572;2022-07-10T10:28:01;101221.41;;;21.17;51.25
45888;BME280;31595;51.418;7.572;2022-07-10T10:30:30;101225.59;;;21.07;51.92
45888;BME280;31595;51.418;7.572;2022-07-10T10:32:58;101222.34;;;21.25;51.71
45888;BME280;31595;51.418;7.572;2022-07-10T10:35:46;101219.91;;;21.23;51.80
45888;BME280;31595;51.418;7.572;2022-07-10T10:38:14;101217.31;;;21.34;51.73
45888;BME280;31595;51.418;7.572;2022-07-10T10:40:42;101221.41;;;21.17;51.34
45888;BME280;31595;51.418;7.572;2022-07-10T10:43:16;101223.31;;;20.97;51.75
45888;BME280;31595;51.418;7.572;2022-07-10T10:45:45;101224.44;;;20.93;52.19
45888;BME280;31595;51.418;7.572;2022-07-10T10:48:14;101214.31;;;20.60;53.01
45888;BME280;31595;51.418;7.572;2022-07-10T10:50:42;101225.94;;;20.26;54.31
45888;BME280;31595;51.418;7.572;2022-07-10T10:53:15;101214.97;;;20.25;54.73
45888;BME280;31595;51.418;7.572;2022-07-10T10:58:48;101217.19;;;20.32;55.15
45888;BME280;31595;51.418;7.572;2022-07-10T11:01:27;101211.88;;;20.30;55.55
45888;BME280;31595;51.418;7.572;2022-07-10T11:04:15;101219.03;;;20.40;55.04
45888;BME280;31595;51.418;7.572;2022-07-10T11:06:45;101211.81;;;20.42;55.36
45888;BME280;31595;51.418;7.572;2022-07-10T11:09:27;101210.44;;;20.36;55.38
45888;BME280;31595;51.418;7.572;2022-07-10T11:12:01;101208.06;;;20.38;55.84
45888;BME280;31595;51.418;7.572;2022-07-10T11:14:31;101208.50;;;20.40;55.88
45888;BME280;31595;51.418;7.572;2022-07-10T11:16:59;101212.16;;;20.41;55.31
45888;BME280;31595;51.418;7.572;2022-07-10T11:19:28;101207.69;;;20.40;55.90
45888;BME280;31595;51.418;7.572;2022-07-10T11:22:10;101211.25;;;20.37;56.31
45888;BME280;31595;51.418;7.572;2022-07-10T11:24:49;101205.59;;;20.37;56.60
45888;BME280;31595;51.418;7.572;2022-07-10T11:27:42;101208.59;;;20.28;57.66
45888;BME280;31595;51.418;7.572;2022-07-10T11:30:17;101209.78;;;20.27;57.66
45888;BME280;31595;51.418;7.572;2022-07-10T11:32:44;101205.75;;;20.28;57.88
45888;BME280;31595;51.418;7.572;2022-07-10T11:35:12;101209.28;;;20.09;59.14
45888;BME280;31595;51.418;7.572;2022-07-10T11:37:48;101217.13;;;20.16;58.70
45888;BME280;31595;51.418;7.572;2022-07-10T11:40:19;101199.63;;;20.26;58.06
45888;BME280;31595;51.418;7.572;2022-07-10T11:42:51;101198.94;;;20.29;58.05
45888;BME280;31595;51.418;7.572;2022-07-10T11:45:29;101197.09;;;20.21;57.59
45888;BME280;31595;51.418;7.572;2022-07-10T11:47:57;101192.00;;;20.26;58.49
45888;BME280;31595;51.418;7.572;2022-07-10T11:50:26;101192.63;;;20.36;59.34
45888;BME280;31595;51.418;7.572;2022-07-10T11:52:54;101195.50;;;20.52;58.29
45888;BME280;31595;51.418;7.572;2022-07-10T11:55:23;101194.94;;;20.62;58.09
45888;BME280;31595;51.418;7.572;2022-07-10T11:57:50;101188.25;;;20.54;57.51
45888;BME280;31595;51.418;7.572;2022-07-10T12:00:22;101191.81;;;20.83;56.65
45888;BME280;31595;51.418;7.572;2022-07-10T12:02:50;101186.72;;;20.57;57.28
45888;BME280;31595;51.418;7.572;2022-07-10T12:05:34;101187.44;;;20.54;57.89
45888;BME280;31595;51.418;7.572;2022-07-10T12:08:02;101185.78;;;20.37;57.81
45888;BME280;31595;51.418;7.572;2022-07-10T12:10:32;101184.88;;;20.48;57.21
45888;BME280;31595;51.418;7.572;2022-07-10T12:13:06;101187.78;;;20.20;57.94
45888;BME280;31595;51.418;7.572;2022-07-10T12:15:35;101189.47;;;19.93;58.78
45888;BME280;31595;51.418;7.572;2022-07-10T12:18:04;101195.47;;;19.92;59.29
45888;BME280;31595;51.418;7.572;2022-07-10T12:20:32;101175.63;;;20.04;58.79
45888;BME280;31595;51.418;7.572;2022-07-10T12:23:00;101182.09;;;20.04;59.00
45888;BME280;31595;51.418;7.572;2022-07-10T12:25:28;101186.25;;;19.95;59.18
45888;BME280;31595;51.418;7.572;2022-07-10T12:27:57;101194.38;;;19.96;59.84
45888;BME280;31595;51.418;7.572;2022-07-10T12:30:38;101194.44;;;19.84;60.26
45888;BME280;31595;51.418;7.572;2022-07-10T12:33:10;101198.34;;;19.79;60.54
45888;BME280;31595;51.418;7.572;2022-07-10T12:35:46;101193.06;;;19.78;60.64
45888;BME280;31595;51.418;7.572;2022-07-10T12:38:18;101193.19;;;19.69;61.06
45888;BME280;31595;51.418;7.572;2022-07-10T12:40:45;101186.25;;;19.95;60.82
45888;BME280;31595;51.418;7.572;2022-07-10T12:43:24;101188.03;;;20.15;60.18
45888;BME280;31595;51.418;7.572;2022-07-10T12:46:13;101187.13;;;20.11;61.14
45888;BME280;31595;51.418;7.572;2022-07-10T12:48:41;101190.41;;;20.13;61.20
45888;BME280;31595;51.418;7.572;2022-07-10T12:51:23;101185.22;;;20.15;62.51
45888;BME280;31595;51.418;7.572;2022-07-10T12:53:51;101187.25;;;20.31;61.23
45888;BME280;31595;51.418;7.572;2022-07-10T12:56:32;101186.91;;;20.48;61.17
45888;BME280;31595;51.418;7.572;2022-07-10T12:59:03;101178.13;;;20.53;61.00
45888;BME280;31595;51.418;7.572;2022-07-10T13:01:39;101174.38;;;20.97;59.85
45888;BME280;31595;51.418;7.572;2022-07-10T13:04:08;101182.69;;;21.25;58.96